Nearby METAR Reports

 

KSJC - San Jose, California, USA
Distance from station: NE 9mi, 14km
Updated: Mon, 03-Oct-2022 10:53am PDT
Clear
Clear
 Wind from NNW
Wind: NNW 8 mph , 13 km/h
Temperature: 68°F , 20°C
Dew Point: 54°F , 12°C
Humidity: 60%
Barometer: 30.07 inHg , 1018.3 hPa
Clouds: Clear
Visibility: 10 miles , 16 km
2022/10/03 17:53 KSJC 031753Z 34007KT 10SM CLR 20/12 A3007 RMK AO2 SLP182 T02000117 10206 20139 51003 $
KNUQ - Moffett Nas/Mtn, California, USA
Distance from station: N 9mi, 14km
Updated: Mon, 03-Oct-2022 11:35am PDT
Clear
Clear
 Wind from N
Wind: N 8 mph , 13 km/h
Temperature: 68°F , 20°C
Dew Point: 54°F , 12°C
Humidity: 60%
Barometer: 30.06 inHg , 1017.9 hPa
Clouds: Clear
Visibility: 10 miles , 16 km
2022/10/03 18:35 KNUQ 031835Z AUTO 01007KT 340V040 10SM CLR 20/12 A3006 RMK AO2
 
KPAO - Palo Alto, California, USA
Distance from station: NNW 14mi, 23km
Updated: Mon, 03-Oct-2022 11:47am PDT
Clear
Clear
 Wind from NNE
Wind: NNE 8 mph , 13 km/h
Temperature: 68°F , 20°C
Dew Point: 55°F , 13°C
Humidity: 64%
Barometer: 30.07 inHg , 1018.3 hPa
Clouds: Clear
Visibility: 10 miles , 16 km
2022/10/03 18:47 KPAO 031847Z 02007KT 10SM SKC 20/13 A3007
KRHV - San Jose/Reid, California, USA
Distance from station: ENE 12mi, 19km
Updated: Mon, 03-Oct-2022 10:47am PDT
Clear
Clear
 Wind from WNW
Wind: WNW 5 mph , 7 km/h
Temperature: 66°F , 19°C
Dew Point: 54°F , 12°C
Humidity: 64%
Barometer: 30.08 inHg , 1018.6 hPa
Clouds: Clear
Visibility: 10 miles , 16 km
2022/10/03 17:47 KRHV 031747Z 30004KT 10SM SKC 19/12 A3008
 
KOAK - Oakland, California, USA
Distance from station: NNW 31mi, 50km
Updated: Mon, 03-Oct-2022 10:53am PDT
Clear
Clear
 Wind from varies
Wind: varies 6 mph , 9 km/h
Temperature: 68°F , 20°C
Dew Point: 55°F , 13°C
Humidity: 64%
Barometer: 30.08 inHg , 1018.6 hPa
Clouds: Clear
Visibility: 10 miles , 16 km
2022/10/03 17:53 KOAK 031753Z VRB05KT 10SM CLR 20/13 A3008 RMK AO2 SLP184 T02000128 10206 20117 51004
KSQL - San Carlos Airpo, California, USA
Distance from station: NW 21mi, 34km
Updated: Mon, 03-Oct-2022 11:47am PDT
Clear
Clear
 Wind from N
Wind: N 17 mph , 28 km/h
Temperature: 68°F , 20°C
Dew Point: 55°F , 13°C
Humidity: 64%
Barometer: 30.07 inHg , 1018.3 hPa
Clouds: Clear
Visibility: 10 miles , 16 km
2022/10/03 18:47 KSQL 031847Z 36015KT 10SM CLR 20/13 A3007
 
KSFO - San Francisco, California, USA
Distance from station: NW 30mi, 49km
Updated: Mon, 03-Oct-2022 10:56am PDT
Few Clouds
Few Clouds
 Wind from WNW
Wind: WNW 12 mph , 19 km/h
Temperature: 68°F , 20°C
Dew Point: 54°F , 12°C
Humidity: 60%
Barometer: 30.07 inHg , 1018.3 hPa
Clouds: Few Clouds
Visibility: 10 miles , 16 km
Cloud details: Few Clouds 2500 ft
2022/10/03 17:56 KSFO 031756Z 30010KT 10SM FEW025 20/12 A3007 RMK AO2 SLP181 T02000117 10200 20144 51005
KE16 - San Martin, California, USA
Distance from station: ESE 27mi, 43km
Updated: Mon, 03-Oct-2022 11:35am PDT
Clear
Clear
 Wind from NNW
Wind: NNW 9 mph , 15 km/h, Gust: 21 mph , 33 km/h
Temperature: 72°F , 22°C
Dew Point: 54°F , 12°C
Humidity: 53%
Barometer: 30.07 inHg , 1018.3 hPa
Clouds: Clear
Visibility: 10 miles , 16 km
2022/10/03 18:35 KE16 031835Z AUTO 34008G18KT 10SM CLR 22/12 A3007 RMK AO2 PWINO PNO
 
KWVI - Watsonville, California, USA
Distance from station: SSE 27mi, 44km
Updated: Mon, 03-Oct-2022 10:53am PDT
Clear
Clear
 Wind from varies
Wind: varies 3 mph , 6 km/h
Temperature: 68°F , 20°C
Dew Point: 55°F , 13°C
Humidity: 64%
Barometer: 30.07 inHg , 1018.3 hPa
Clouds: Clear
Visibility: 10 miles , 16 km
2022/10/03 17:53 KWVI 031753Z AUTO VRB03KT 10SM CLR 20/13 A3007 RMK AO2 SLP181 T02000133 10200 20100 51002
KHAF - Half Moon Bay, California, USA
Distance from station: WNW 31mi, 50km
Updated: Mon, 03-Oct-2022 11:35am PDT
Clear
Clear
 Wind from NW
Wind: NW 12 mph , 19 km/h
Temperature: 66°F , 19°C
Dew Point: 55°F , 13°C
Humidity: 68%
Barometer: 30.08 inHg , 1018.6 hPa
Clouds: Clear
Visibility: 9 miles , 14 km
2022/10/03 18:35 KHAF 031835Z AUTO 31010KT 9SM CLR 19/13 A3008 RMK AO2
 
KHWD - Hayward, California, USA
Distance from station: N 28mi, 44km
Updated: Mon, 03-Oct-2022 10:54am PDT
Clear
Clear
 Wind from varies
Wind: varies 5 mph , 7 km/h
Temperature: 66°F , 19°C
Dew Point: 54°F , 12°C
Humidity: 64%
Barometer: 30.07 inHg , 1018.3 hPa
Clouds: Clear
Visibility: 10 miles , 16 km
2022/10/03 17:54 KHWD 031754Z VRB04KT 10SM CLR 19/12 A3007 RMK AO2 SLP192 T01940122 10194 20128 53006
KLVK - Livermore, California, USA
Distance from station: NNE 31mi, 51km
Updated: Mon, 03-Oct-2022 10:53am PDT
Clear
Clear
 Wind from WSW
Wind: WSW 6 mph , 9 km/h
Temperature: 68°F , 20°C
Dew Point: 54°F , 12°C
Humidity: 60%
Barometer: 30.06 inHg , 1017.9 hPa
Clouds: Clear
Visibility: 10 miles , 16 km
2022/10/03 17:53 KLVK 031753Z 25005KT 10SM CLR 20/12 A3006 RMK AO2 SLP175 T02000122 10200 20122 51001